createdAt,value
2022-11-18T00:01:22.820Z,5.30
2022-11-18T00:03:50.402Z,5.31
2022-11-18T00:06:19.427Z,5.32
2022-11-18T00:08:49.478Z,5.29
2022-11-18T00:11:39.978Z,5.32
2022-11-18T00:14:22.161Z,5.26
2022-11-18T00:16:53.118Z,5.22
2022-11-18T00:19:23.706Z,5.25
2022-11-18T00:21:50.837Z,5.24
2022-11-18T00:24:17.646Z,5.25
2022-11-18T00:26:44.166Z,5.26
2022-11-18T00:29:10.941Z,5.26
2022-11-18T00:31:38.019Z,5.24
2022-11-18T00:34:05.165Z,5.23
2022-11-18T00:36:32.512Z,5.23
2022-11-18T00:39:01.794Z,5.26
2022-11-18T00:41:48.269Z,5.25
2022-11-18T00:44:14.723Z,5.27
2022-11-18T00:46:41.770Z,5.27
2022-11-18T00:49:08.719Z,5.27
2022-11-18T00:51:38.042Z,5.29
2022-11-18T00:54:05.057Z,5.21
2022-11-18T00:56:31.846Z,5.21
2022-11-18T00:58:58.774Z,5.22
2022-11-18T01:01:25.958Z,5.24
2022-11-18T01:03:52.522Z,5.25
2022-11-18T01:06:19.071Z,5.25
2022-11-18T01:08:48.335Z,5.24
2022-11-18T01:11:33.440Z,5.25
2022-11-18T01:13:59.909Z,5.26
2022-11-18T01:16:28.225Z,5.24
2022-11-18T01:18:55.223Z,5.18
2022-11-18T01:21:22.880Z,5.15
2022-11-18T01:23:49.556Z,5.19
2022-11-18T01:26:17.230Z,5.21
2022-11-18T01:28:44.562Z,5.15
2022-11-18T01:31:19.371Z,5.13
2022-11-18T01:33:47.104Z,5.08
2022-11-18T01:36:17.940Z,5.07
2022-11-18T01:38:44.478Z,5.05
2022-11-18T01:41:14.048Z,5.03
2022-11-18T01:44:31.636Z,5.09
2022-11-18T01:46:58.119Z,4.96
2022-11-18T01:49:24.765Z,4.93
2022-11-18T01:51:56.679Z,4.88
2022-11-18T01:54:37.353Z,4.93
2022-11-18T01:57:11.703Z,4.91
2022-11-18T01:59:43.867Z,4.92
2022-11-18T02:02:14.222Z,4.87
2022-11-18T02:04:44.392Z,4.92
2022-11-18T02:07:12.155Z,4.96
2022-11-18T02:09:38.856Z,5.01
2022-11-18T02:12:07.835Z,4.99
2022-11-18T02:14:40.969Z,4.97
2022-11-18T02:17:42.544Z,4.95
2022-11-18T02:20:09.009Z,4.91
2022-11-18T02:23:06.552Z,4.92
2022-11-18T02:26:07.057Z,4.90
2022-11-18T02:29:03.041Z,4.82
2022-11-18T02:31:40.945Z,4.81
2022-11-18T02:34:14.478Z,4.84
2022-11-18T02:36:48.192Z,4.81
2022-11-18T02:39:23.003Z,4.81
2022-11-18T02:41:54.197Z,4.73
2022-11-18T02:44:24.988Z,4.70
2022-11-18T02:47:01.788Z,4.69
2022-11-18T02:49:54.467Z,4.73
2022-11-18T02:52:28.598Z,4.73
2022-11-18T02:54:59.060Z,4.68
2022-11-18T02:57:29.108Z,4.69
2022-11-18T02:59:55.806Z,4.65
2022-11-18T03:02:22.864Z,4.66
2022-11-18T03:04:53.652Z,4.67
2022-11-18T03:07:25.140Z,4.63
2022-11-18T03:09:53.002Z,4.63
2022-11-18T03:12:42.285Z,4.62
2022-11-18T03:15:16.353Z,4.65
2022-11-18T03:17:51.424Z,4.59
2022-11-18T03:20:33.219Z,4.63
2022-11-18T03:23:14.694Z,4.61
2022-11-18T03:25:47.685Z,4.62
2022-11-18T03:28:27.189Z,4.60
2022-11-18T03:31:08.433Z,4.58
2022-11-18T03:33:39.880Z,4.56
2022-11-18T03:36:09.613Z,4.59
2022-11-18T03:38:40.123Z,4.62
2022-11-18T03:41:11.287Z,4.56
2022-11-18T03:43:41.935Z,4.57
2022-11-18T03:46:20.888Z,4.47
2022-11-18T03:48:53.572Z,4.50
2022-11-18T03:51:46.170Z,4.44
2022-11-18T03:54:30.081Z,4.39
2022-11-18T03:57:04.070Z,4.44
2022-11-18T03:59:36.549Z,4.43
2022-11-18T04:02:14.924Z,4.47
2022-11-18T04:04:44.150Z,4.40
2022-11-18T04:07:35.708Z,4.42
2022-11-18T04:10:30.909Z,4.44
2022-11-18T04:13:00.622Z,4.42
2022-11-18T04:15:31.805Z,4.45
2022-11-18T04:17:59.199Z,4.45
2022-11-18T04:20:27.024Z,4.39
2022-11-18T04:22:53.522Z,4.37
2022-11-18T04:25:20.047Z,4.37
2022-11-18T04:27:46.498Z,4.34
2022-11-18T04:30:13.315Z,4.35
2022-11-18T04:32:39.791Z,4.38
2022-11-18T04:35:06.552Z,4.37
2022-11-18T04:37:33.507Z,4.39
2022-11-18T04:40:00.102Z,4.30
2022-11-18T04:42:26.649Z,4.22
2022-11-18T04:44:53.168Z,4.24
2022-11-18T04:47:19.746Z,4.22
2022-11-18T04:49:46.235Z,4.12
2022-11-18T04:52:12.816Z,4.17
2022-11-18T04:54:39.285Z,4.17
2022-11-18T04:57:06.043Z,4.20
2022-11-18T04:59:32.547Z,4.19
2022-11-18T05:02:00.973Z,4.15
2022-11-18T05:04:30.159Z,4.13
2022-11-18T05:06:57.320Z,4.11
2022-11-18T05:09:30.255Z,4.13
2022-11-18T05:12:16.739Z,4.06
2022-11-18T05:14:49.319Z,4.03
2022-11-18T05:17:17.104Z,4.01
2022-11-18T05:19:43.570Z,4.02
2022-11-18T05:22:10.100Z,3.94
2022-11-18T05:24:36.627Z,3.97
2022-11-18T05:27:03.236Z,3.98
2022-11-18T05:29:29.726Z,3.94
2022-11-18T05:31:56.239Z,3.89
2022-11-18T05:34:22.883Z,3.90
2022-11-18T05:36:49.409Z,3.93
2022-11-18T05:39:16.269Z,3.89
2022-11-18T05:42:01.733Z,3.74
2022-11-18T05:44:30.957Z,3.82
2022-11-18T05:47:00.291Z,3.81
2022-11-18T05:49:26.857Z,3.83
2022-11-18T05:51:53.343Z,3.88
2022-11-18T05:54:24.150Z,3.85
2022-11-18T05:56:51.205Z,3.76
2022-11-18T05:59:18.189Z,3.73
2022-11-18T06:01:54.620Z,3.73
2022-11-18T06:04:47.668Z,3.78
2022-11-18T06:07:21.916Z,3.77
2022-11-18T06:09:54.079Z,3.73
2022-11-18T06:12:25.175Z,3.72
2022-11-18T06:15:00.171Z,3.69
2022-11-18T06:17:37.426Z,3.71
2022-11-18T06:20:05.045Z,3.70
2022-11-18T06:22:31.707Z,3.74
2022-11-18T06:24:58.237Z,3.68
2022-11-18T06:27:24.691Z,3.67
2022-11-18T06:29:51.195Z,3.64
2022-11-18T06:32:20.914Z,3.58
2022-11-18T06:34:47.373Z,3.58
2022-11-18T06:37:15.279Z,3.59
2022-11-18T06:39:41.965Z,3.63
2022-11-18T06:42:08.585Z,3.70
2022-11-18T06:44:35.141Z,3.65
2022-11-18T06:47:04.126Z,3.62
2022-11-18T06:49:30.575Z,3.67
2022-11-18T06:51:57.085Z,3.68
2022-11-18T06:54:23.640Z,3.67
2022-11-18T06:56:50.204Z,3.69
2022-11-18T06:59:22.188Z,3.59
2022-11-18T07:01:48.590Z,3.53
2022-11-18T07:04:15.055Z,3.54
2022-11-18T07:06:41.561Z,3.51
2022-11-18T07:09:08.107Z,3.45
2022-11-18T07:11:34.689Z,3.49
2022-11-18T07:14:01.491Z,3.51
2022-11-18T07:16:28.570Z,3.51
2022-11-18T07:18:56.365Z,3.55
2022-11-18T07:21:27.765Z,3.55
2022-11-18T07:23:55.629Z,3.49
2022-11-18T07:26:22.365Z,3.51
2022-11-18T07:28:49.773Z,3.53
2022-11-18T07:31:18.594Z,3.55
2022-11-18T07:33:46.190Z,3.57
2022-11-18T07:36:14.997Z,3.50
2022-11-18T07:38:42.192Z,3.40
2022-11-18T07:41:08.689Z,3.26
2022-11-18T07:43:35.900Z,3.31
2022-11-18T07:46:12.669Z,3.40
2022-11-18T07:48:39.802Z,3.42
2022-11-18T07:51:10.183Z,3.39
2022-11-18T07:53:40.038Z,3.39
2022-11-18T07:56:07.079Z,3.36
2022-11-18T07:58:33.674Z,3.32
2022-11-18T08:01:12.444Z,3.26
2022-11-18T08:03:39.908Z,3.22
2022-11-18T08:06:08.271Z,3.14
2022-11-18T08:08:36.031Z,3.13
2022-11-18T08:11:06.559Z,3.12
2022-11-18T08:13:35.971Z,3.15
2022-11-18T08:16:03.503Z,3.15
2022-11-18T08:18:31.883Z,3.28
2022-11-18T08:21:05.221Z,3.22
2022-11-18T08:23:36.137Z,3.20
2022-11-18T08:26:11.387Z,3.18
2022-11-18T08:28:38.131Z,3.17
2022-11-18T08:31:14.879Z,3.06
2022-11-18T08:33:41.785Z,3.05
2022-11-18T08:36:11.040Z,3.02
2022-11-18T08:38:37.537Z,3.02
2022-11-18T08:41:06.039Z,3.01
2022-11-18T08:43:33.182Z,2.93
2022-11-18T08:45:59.668Z,2.92
2022-11-18T08:48:26.148Z,2.88
2022-11-18T08:50:53.099Z,2.86
2022-11-18T08:53:19.591Z,2.75
2022-11-18T08:55:46.056Z,2.74
2022-11-18T08:58:12.548Z,2.81
2022-11-18T09:00:38.980Z,2.67
2022-11-18T09:03:05.475Z,2.73
2022-11-18T09:05:31.914Z,2.74
2022-11-18T09:07:58.403Z,2.74
2022-11-18T09:10:24.859Z,2.73
2022-11-18T09:12:51.336Z,2.70
2022-11-18T09:15:17.984Z,2.71
2022-11-18T09:17:44.894Z,2.73
2022-11-18T09:20:11.437Z,2.71
2022-11-18T09:22:39.181Z,2.70
2022-11-18T09:25:06.223Z,2.59
2022-11-18T09:27:32.675Z,2.56
2022-11-18T09:29:59.202Z,2.57
2022-11-18T09:32:25.704Z,2.44
2022-11-18T09:34:52.268Z,2.39
2022-11-18T09:37:19.028Z,2.51
2022-11-18T09:39:45.588Z,2.60
2022-11-18T09:42:54.115Z,2.57
2022-11-18T09:45:28.460Z,2.51
2022-11-18T09:48:00.723Z,2.56
2022-11-18T09:50:48.630Z,2.55
2022-11-18T09:53:20.173Z,2.58
2022-11-18T09:55:48.883Z,2.54
2022-11-18T09:58:23.721Z,2.50
2022-11-18T10:00:50.377Z,2.51
2022-11-18T10:03:30.189Z,2.42
2022-11-18T10:06:03.825Z,2.50
2022-11-18T10:08:55.963Z,2.46
2022-11-18T10:11:38.644Z,2.54
2022-11-18T10:14:33.873Z,2.56
2022-11-18T10:17:31.522Z,2.47
2022-11-18T10:20:07.006Z,2.41
2022-11-18T10:22:56.257Z,2.34
2022-11-18T10:25:22.751Z,2.35
2022-11-18T10:27:50.766Z,2.42
2022-11-18T10:30:20.948Z,2.29
2022-11-18T10:33:19.774Z,2.23
2022-11-18T10:35:46.391Z,2.32
2022-11-18T10:38:12.820Z,2.33
2022-11-18T10:41:01.613Z,2.32
2022-11-18T10:43:46.529Z,2.34
2022-11-18T10:46:28.179Z,2.31
2022-11-18T10:49:21.248Z,2.29
2022-11-18T10:52:06.203Z,2.25
2022-11-18T10:54:33.409Z,2.32
2022-11-18T10:57:11.004Z,2.36
2022-11-18T10:59:55.312Z,2.21
2022-11-18T11:02:54.054Z,2.11
2022-11-18T11:05:23.365Z,2.17
2022-11-18T11:08:35.727Z,2.21
2022-11-18T11:11:04.329Z,2.18
2022-11-18T11:13:32.507Z,2.23
2022-11-18T11:16:03.497Z,2.07
2022-11-18T11:18:42.664Z,2.12
2022-11-18T11:21:22.822Z,2.04
2022-11-18T11:23:49.290Z,1.99
2022-11-18T11:29:49.060Z,1.96
2022-11-18T11:32:19.258Z,1.89
2022-11-18T11:35:13.298Z,1.96
2022-11-18T11:37:56.069Z,2.00
2022-11-18T11:40:41.257Z,2.00
2022-11-18T11:43:43.500Z,1.96
2022-11-18T11:46:45.166Z,1.99
2022-11-18T11:49:19.449Z,1.86
2022-11-18T11:51:53.915Z,1.91
2022-11-18T11:54:26.321Z,1.82
2022-11-18T11:57:04.059Z,1.81
2022-11-18T11:59:36.333Z,1.76
2022-11-18T12:02:33.391Z,1.79
2022-11-18T12:05:39.341Z,1.78
2022-11-18T12:08:25.334Z,1.75
2022-11-18T12:10:56.224Z,1.71
2022-11-18T12:13:56.723Z,1.66
2022-11-18T12:17:00.764Z,1.68
2022-11-18T12:19:27.449Z,1.80
2022-11-18T12:21:58.197Z,1.73
2022-11-18T12:24:31.302Z,1.64
2022-11-18T12:27:13.768Z,1.60
2022-11-18T12:29:49.078Z,1.58
2022-11-18T12:32:35.315Z,1.51
2022-11-18T12:35:21.633Z,1.41
2022-11-18T12:37:51.168Z,1.40
2022-11-18T12:40:36.993Z,1.51
2022-11-18T12:43:25.015Z,1.50
2022-11-18T12:45:56.159Z,1.49
2022-11-18T12:48:31.630Z,1.43
2022-11-18T12:51:10.961Z,1.37
2022-11-18T12:53:40.335Z,1.43
2022-11-18T12:56:25.118Z,1.33
2022-11-18T12:58:56.786Z,1.40
2022-11-18T13:01:26.270Z,1.41
2022-11-18T13:04:05.359Z,1.38
2022-11-18T13:06:34.702Z,1.34
2022-11-18T13:09:04.203Z,1.38
2022-11-18T13:11:47.660Z,1.34
2022-11-18T13:14:37.048Z,1.31
2022-11-18T13:17:41.617Z,1.34
2022-11-18T13:20:30.938Z,1.38
2022-11-18T13:23:17.064Z,1.34
2022-11-18T13:25:47.732Z,1.39
2022-11-18T13:28:19.234Z,1.30
2022-11-18T13:30:54.637Z,1.34
2022-11-18T13:33:21.297Z,1.29
2022-11-18T13:35:47.765Z,1.19
2022-11-18T13:38:28.020Z,1.15
2022-11-18T13:41:15.591Z,1.17
2022-11-18T13:43:42.108Z,1.20
2022-11-18T13:46:17.384Z,1.17
2022-11-18T13:48:54.536Z,1.04
2022-11-18T13:51:22.636Z,1.13
2022-11-18T13:53:49.124Z,1.08
2022-11-18T13:56:17.900Z,1.07
2022-11-18T13:59:16.240Z,1.06
2022-11-18T14:01:44.726Z,1.04
2022-11-18T14:04:27.560Z,1.06
2022-11-18T14:06:54.072Z,1.02
2022-11-18T14:09:27.399Z,1.07
2022-11-18T14:12:00.502Z,1.15
2022-11-18T14:14:36.338Z,1.11
2022-11-18T14:17:16.003Z,1.04
2022-11-18T14:19:42.974Z,0.95
2022-11-18T14:22:24.706Z,1.03
2022-11-18T14:25:22.229Z,0.97
2022-11-18T14:27:53.822Z,0.92
2022-11-18T14:30:37.029Z,0.86
2022-11-18T14:33:03.487Z,0.91
2022-11-18T14:35:33.556Z,0.87
2022-11-18T14:38:35.266Z,0.92
2022-11-18T14:40:54.964Z,0.91
2022-11-18T14:43:21.589Z,0.84
2022-11-18T14:45:49.828Z,0.92
2022-11-18T14:48:20.066Z,0.88
2022-11-18T14:50:47.953Z,0.86
2022-11-18T14:53:14.463Z,0.82
2022-11-18T14:55:41.718Z,0.77
2022-11-18T14:58:14.143Z,0.79
2022-11-18T15:00:45.710Z,0.76
2022-11-18T15:03:12.283Z,0.77
2022-11-18T15:05:39.231Z,0.78
2022-11-18T15:08:05.780Z,0.72
2022-11-18T15:10:32.619Z,0.72
2022-11-18T15:12:59.109Z,0.65
2022-11-18T15:15:25.737Z,0.57
2022-11-18T15:17:54.046Z,0.56
2022-11-18T15:20:22.971Z,0.46
2022-11-18T15:22:49.675Z,0.53
2022-11-18T15:25:16.585Z,0.49
2022-11-18T15:27:44.248Z,0.55
2022-11-18T15:30:13.851Z,0.53
2022-11-18T15:32:40.598Z,0.50
2022-11-18T15:35:07.484Z,0.35
2022-11-18T15:37:33.982Z,0.26
2022-11-18T15:40:00.452Z,0.29
2022-11-18T15:42:26.958Z,0.25
2022-11-18T15:44:53.414Z,0.17
2022-11-18T15:47:19.964Z,0.15
2022-11-18T15:49:46.474Z,0.23
2022-11-18T15:52:13.036Z,0.24
2022-11-18T15:54:39.580Z,0.27
2022-11-18T15:57:06.114Z,0.28
2022-11-18T15:59:32.607Z,0.27
2022-11-18T16:01:59.132Z,0.25
2022-11-18T16:04:28.214Z,0.16
2022-11-18T16:06:54.925Z,0.12
2022-11-18T16:09:21.790Z,0.18
2022-11-18T16:12:06.890Z,0.09
2022-11-18T16:14:36.775Z,0.13
2022-11-18T16:17:03.314Z,0.11
2022-11-18T16:19:33.370Z,0.07
2022-11-18T16:22:00.083Z,0.10
2022-11-18T16:24:29.018Z,0.02
2022-11-18T16:26:56.263Z,-0.05
2022-11-18T16:29:24.331Z,-0.01
2022-11-18T16:31:52.501Z,-0.05
2022-11-18T16:34:19.188Z,-0.17
2022-11-18T16:36:52.074Z,-0.21
2022-11-18T16:39:26.709Z,-0.15
2022-11-18T16:42:06.447Z,-0.21
2022-11-18T16:44:34.871Z,-0.23
2022-11-18T16:47:01.564Z,-0.30
2022-11-18T16:49:28.271Z,-0.27
2022-11-18T16:51:58.645Z,-0.23
2022-11-18T16:54:27.061Z,-0.21
2022-11-18T16:56:56.104Z,-0.23
2022-11-18T16:59:30.716Z,-0.23
2022-11-18T17:01:59.573Z,-0.36
2022-11-18T17:04:28.441Z,-0.32
2022-11-18T17:06:55.649Z,-0.21
2022-11-18T17:09:23.995Z,-0.28
2022-11-18T17:11:52.154Z,-0.27
2022-11-18T17:14:19.606Z,-0.28
2022-11-18T17:16:46.447Z,-0.29
2022-11-18T17:19:19.041Z,-0.26
2022-11-18T17:21:46.935Z,-0.31
2022-11-18T17:24:15.966Z,-0.32
2022-11-18T17:26:43.143Z,-0.35
2022-11-18T17:29:11.632Z,-0.28
2022-11-18T17:31:38.804Z,-0.25
2022-11-18T17:34:05.885Z,-0.33
2022-11-18T17:36:32.680Z,-0.27
2022-11-18T17:39:00.541Z,-0.28
2022-11-18T17:41:47.150Z,-0.20
2022-11-18T17:44:15.767Z,-0.17
2022-11-18T17:46:42.946Z,-0.24
2022-11-18T17:49:23.575Z,-0.26
2022-11-18T17:51:53.487Z,-0.19
2022-11-18T17:54:21.288Z,-0.19
2022-11-18T17:56:49.853Z,-0.24
2022-11-18T17:59:17.433Z,-0.20
2022-11-18T18:01:45.442Z,-0.28
2022-11-18T18:04:14.474Z,-0.26
2022-11-18T18:06:41.389Z,-0.28
2022-11-18T18:09:07.839Z,-0.31
2022-11-18T18:11:34.404Z,-0.32
2022-11-18T18:14:13.002Z,-0.34
2022-11-18T18:16:45.472Z,-0.36
2022-11-18T18:19:23.374Z,-0.30
2022-11-18T18:21:50.647Z,-0.28
2022-11-18T18:24:19.579Z,-0.39
2022-11-18T18:26:46.594Z,-0.34
2022-11-18T18:29:13.472Z,-0.31
2022-11-18T18:31:40.075Z,-0.30
2022-11-18T18:34:06.728Z,-0.34
2022-11-18T18:36:33.711Z,-0.40
2022-11-18T18:39:01.704Z,-0.41
2022-11-18T18:41:28.336Z,-0.40
2022-11-18T18:43:54.987Z,-0.33
2022-11-18T18:46:31.107Z,-0.43
2022-11-18T18:49:15.278Z,-0.43
2022-11-18T18:51:44.493Z,-0.42
2022-11-18T18:54:15.848Z,-0.43
2022-11-18T18:56:43.188Z,-0.45
2022-11-18T18:59:10.544Z,-0.43
2022-11-18T19:01:39.364Z,-0.52
2022-11-18T19:04:07.779Z,-0.43
2022-11-18T19:09:23.277Z,-0.46
2022-11-18T19:12:09.423Z,-0.42
2022-11-18T19:14:36.071Z,-0.42
2022-11-18T19:17:09.439Z,-0.47
2022-11-18T19:19:55.701Z,-0.44
2022-11-18T19:22:22.212Z,-0.50
2022-11-18T19:24:50.569Z,-0.50
2022-11-18T19:27:18.244Z,-0.42
2022-11-18T19:29:45.128Z,-0.54
2022-11-18T19:32:11.708Z,-0.44
2022-11-18T19:34:38.218Z,-0.43
2022-11-18T19:37:04.701Z,-0.43
2022-11-18T19:39:31.324Z,-0.43
2022-11-18T19:41:57.888Z,-0.37
2022-11-18T19:44:24.356Z,-0.40
2022-11-18T19:46:50.849Z,-0.41
2022-11-18T19:49:19.563Z,-0.38
2022-11-18T19:51:46.240Z,-0.41
2022-11-18T19:54:12.841Z,-0.39
2022-11-18T19:56:39.391Z,-0.38
2022-11-18T19:59:05.843Z,-0.39
2022-11-18T20:01:32.787Z,-0.36
2022-11-18T20:04:02.949Z,-0.42
2022-11-18T20:06:29.832Z,-0.46
2022-11-18T20:08:57.152Z,-0.43
2022-11-18T20:11:24.067Z,-0.45
2022-11-18T20:13:51.096Z,-0.45
2022-11-18T20:16:23.340Z,-0.45
2022-11-18T20:18:54.904Z,-0.52
2022-11-18T20:21:22.303Z,-0.43
2022-11-18T20:23:58.841Z,-0.49
2022-11-18T20:26:28.039Z,-0.46
2022-11-18T20:28:57.639Z,-0.41
2022-11-18T20:31:25.727Z,-0.57
2022-11-18T20:33:54.309Z,-0.51
2022-11-18T20:36:25.007Z,-0.41
2022-11-18T20:38:54.180Z,-0.47
2022-11-18T20:41:21.868Z,-0.59
2022-11-18T20:43:48.861Z,-0.51
2022-11-18T20:46:20.665Z,-0.43
2022-11-18T20:48:47.836Z,-0.42
2022-11-18T20:51:23.605Z,-0.44
2022-11-18T20:53:51.195Z,-0.55
2022-11-18T20:56:19.975Z,-0.58
2022-11-18T20:58:47.114Z,-0.63
2022-11-18T21:01:16.581Z,-0.64
2022-11-18T21:03:52.669Z,-0.62
2022-11-18T21:06:19.942Z,-0.65
2022-11-18T21:08:46.650Z,-0.68
2022-11-18T21:11:14.713Z,-0.60
2022-11-18T21:14:00.371Z,-0.65
2022-11-18T21:16:27.855Z,-0.74
2022-11-18T21:18:54.774Z,-0.67
2022-11-18T21:21:39.855Z,-0.68
2022-11-18T21:24:06.643Z,-0.67
2022-11-18T21:26:35.460Z,-0.62
2022-11-18T21:29:04.944Z,-0.66
2022-11-18T21:31:32.725Z,-0.56
2022-11-18T21:33:59.408Z,-0.61
2022-11-18T21:36:28.201Z,-0.65
2022-11-18T21:38:56.856Z,-0.66
2022-11-18T21:41:23.534Z,-0.69
2022-11-18T21:44:05.128Z,-0.67
2022-11-18T21:46:34.724Z,-0.69
2022-11-18T21:49:01.935Z,-0.68
2022-11-18T21:51:28.768Z,-0.63
2022-11-18T21:53:55.203Z,-0.61
2022-11-18T21:56:25.152Z,-0.70
2022-11-18T21:58:52.701Z,-0.74
2022-11-18T22:01:21.512Z,-0.70
2022-11-18T22:03:55.202Z,-0.72
2022-11-18T22:06:24.476Z,-0.76
2022-11-18T22:08:52.342Z,-0.67
2022-11-18T22:11:20.290Z,-0.65
2022-11-18T22:13:47.052Z,-0.63
2022-11-18T22:16:18.082Z,-0.67
2022-11-18T22:18:50.345Z,-0.69
2022-11-18T22:21:21.400Z,-0.69
2022-11-18T22:23:48.490Z,-0.64
2022-11-18T22:26:19.941Z,-0.64
2022-11-18T22:28:47.698Z,-0.67
2022-11-18T22:31:17.082Z,-0.68
2022-11-18T22:33:43.580Z,-0.81
2022-11-18T22:36:13.609Z,-0.73
2022-11-18T22:38:41.383Z,-0.70
2022-11-18T22:41:32.241Z,-0.68
2022-11-18T22:44:03.961Z,-0.64
2022-11-18T22:46:33.452Z,-0.69
2022-11-18T22:49:00.033Z,-0.74
2022-11-18T22:51:26.769Z,-0.73
2022-11-18T22:54:09.797Z,-0.69
2022-11-18T22:56:39.930Z,-0.69
2022-11-18T22:59:20.269Z,-0.74
2022-11-18T23:01:47.000Z,-0.77
2022-11-18T23:04:13.503Z,-0.76
2022-11-18T23:06:42.904Z,-0.85
2022-11-18T23:09:10.042Z,-0.85
2022-11-18T23:11:54.867Z,-0.78
2022-11-18T23:14:21.353Z,-0.79
2022-11-18T23:16:47.812Z,-0.81
2022-11-18T23:19:17.291Z,-0.81
2022-11-18T23:21:45.211Z,-0.75
2022-11-18T23:24:16.098Z,-0.85
2022-11-18T23:26:43.606Z,-0.78
2022-11-18T23:29:11.905Z,-0.79
2022-11-18T23:31:44.031Z,-0.79
2022-11-18T23:34:15.061Z,-0.89
2022-11-18T23:36:42.124Z,-0.93
2022-11-18T23:39:09.237Z,-0.89
2022-11-18T23:41:35.915Z,-0.82
2022-11-18T23:44:02.685Z,-0.77
2022-11-18T23:46:29.714Z,-0.78
2022-11-18T23:48:56.508Z,-0.85
2022-11-18T23:51:29.077Z,-0.85
2022-11-18T23:53:59.256Z,-0.88
2022-11-18T23:56:27.750Z,-0.86
2022-11-18T23:59:01.728Z,-1.01
